Time;durP1;ratioP1;P1;durP2;ratioP2;P2;SDS_P1;SDS_P2;PMS_P1;PMS_P2;Temp;Humidity;BMP_temperature;BMP_pressure;BME280_temperature;BME280_humidity;BME280_pressure;Samples;Min_cycle;Max_cycle;Signal;HPM_P1;HPM_P2
2021/09/23 00:01:53;;;;;;;207.03;193.43;;;9.30;99.90;;;;;;6231489;23;20395;-88
2021/09/23 00:04:31;;;;;;;229.10;214.40;;;9.20;99.90;;;;;;6221211;23;20480;-90
2021/09/23 00:07:02;;;;;;;202.87;190.07;;;9.30;99.90;;;;;;6229614;23;20439;-90
2021/09/23 00:09:29;;;;;;;214.97;201.10;;;9.10;99.90;;;;;;6228802;23;20791;-89
2021/09/23 00:11:56;;;;;;;206.93;193.90;;;9.20;99.90;;;;;;6230696;23;20470;-89
2021/09/23 00:14:23;;;;;;;199.90;186.67;;;9.10;99.90;;;;;;6230185;23;20404;-89
2021/09/23 00:16:50;;;;;;;189.57;176.80;;;9.10;99.90;;;;;;6220640;23;20422;-89
2021/09/23 00:19:17;;;;;;;182.47;170.93;;;9.10;99.90;;;;;;6230874;23;20478;-90
2021/09/23 00:21:44;;;;;;;175.23;163.50;;;9.10;99.90;;;;;;6230043;23;20416;-90
2021/09/23 00:24:13;;;;;;;166.87;155.13;;;9.10;99.90;;;;;;6221400;23;20400;-89
2021/09/23 00:26:44;;;;;;;171.73;159.63;;;8.90;99.90;;;;;;6221525;23;20459;-89
2021/09/23 00:29:13;;;;;;;176.93;164.13;;;8.80;99.90;;;;;;6219661;23;20734;-88
2021/09/23 00:31:44;;;;;;;170.03;158.67;;;8.70;99.90;;;;;;6220025;23;20490;-90
2021/09/23 00:34:11;;;;;;;169.67;158.73;;;8.70;99.90;;;;;;6218176;23;20801;-90
2021/09/23 00:36:40;;;;;;;184.63;170.77;;;8.70;99.90;;;;;;6217888;23;20401;-86
2021/09/23 00:39:06;;;;;;;202.30;188.07;;;8.60;99.90;;;;;;6228304;23;20408;-90
2021/09/23 00:41:36;;;;;;;209.53;194.93;;;8.60;99.90;;;;;;6217767;23;20436;-89
2021/09/23 00:44:15;;;;;;;233.57;218.00;;;8.50;99.90;;;;;;6217829;23;20780;-90
2021/09/23 00:46:44;;;;;;;243.83;227.47;;;8.50;99.90;;;;;;6218135;23;20400;-90
2021/09/23 00:49:14;;;;;;;248.83;233.73;;;8.50;99.90;;;;;;6216731;23;20400;-88
2021/09/23 00:51:41;;;;;;;267.47;251.00;;;8.40;99.90;;;;;;6227204;23;20466;-87
2021/09/23 00:54:08;;;;;;;261.00;245.33;;;8.50;99.90;;;;;;6227208;23;20768;-88
2021/09/23 00:56:36;;;;;;;265.07;249.17;;;8.40;99.90;;;;;;6218758;23;20393;-89
2021/09/23 00:59:04;;;;;;;275.60;258.80;;;8.30;99.90;;;;;;6227032;23;20404;-87
2021/09/23 01:01:31;;;;;;;282.97;265.60;;;8.40;99.90;;;;;;6228730;23;20408;-89
2021/09/23 01:04:05;;;;;;;287.67;269.57;;;8.40;99.90;;;;;;6229074;23;20440;-88
2021/09/23 01:06:31;;;;;;;282.87;265.93;;;8.40;99.90;;;;;;6228724;23;20491;-90
2021/09/23 01:09:00;;;;;;;296.70;278.70;;;8.50;99.90;;;;;;6219048;23;20415;-88
2021/09/23 01:11:29;;;;;;;288.13;270.57;;;8.60;99.90;;;;;;6218402;23;20463;-89
2021/09/23 01:13:57;;;;;;;284.00;266.30;;;8.50;99.90;;;;;;6218499;23;20392;-89
2021/09/23 01:16:26;;;;;;;278.73;261.93;;;8.50;99.90;;;;;;6229420;23;20408;-90
2021/09/23 01:18:53;;;;;;;279.10;262.63;;;8.40;99.90;;;;;;6220385;23;20392;-90
2021/09/23 01:21:22;;;;;;;283.20;266.63;;;8.30;99.90;;;;;;6228098;23;20440;-88
2021/09/23 01:23:48;;;;;;;273.27;257.27;;;8.30;99.90;;;;;;6227446;23;20466;-90
2021/09/23 01:26:19;;;;;;;282.40;265.50;;;8.30;99.90;;;;;;6217751;23;20432;-88
2021/09/23 01:28:48;;;;;;;281.23;264.93;;;8.20;99.90;;;;;;6226407;23;20412;-89
2021/09/23 01:31:17;;;;;;;285.13;266.87;;;8.20;99.90;;;;;;6226934;23;20557;-89
2021/09/23 01:33:44;;;;;;;300.50;282.33;;;8.10;99.90;;;;;;6217061;23;20455;-90
2021/09/23 01:36:16;;;;;;;302.17;284.43;;;8.00;99.90;;;;;;6217017;23;20572;-89
2021/09/23 01:38:45;;;;;;;305.67;287.47;;;8.10;99.90;;;;;;6226691;23;20412;-87
2021/09/23 01:41:15;;;;;;;299.80;281.73;;;8.10;99.90;;;;;;6226723;23;20927;-86
2021/09/23 01:43:42;;;;;;;295.53;277.53;;;8.10;99.90;;;;;;6216069;23;20407;-90
2021/09/23 01:46:11;;;;;;;291.83;275.63;;;8.20;99.90;;;;;;6227564;23;20404;-89
2021/09/23 01:48:44;;;;;;;297.23;278.23;;;8.10;99.90;;;;;;6218230;23;20411;-89
2021/09/23 01:51:13;;;;;;;302.43;284.20;;;8.00;99.90;;;;;;6227785;23;20444;-89
2021/09/23 01:53:42;;;;;;;310.27;291.43;;;7.90;99.90;;;;;;6217642;23;20436;-88
2021/09/23 01:56:11;;;;;;;314.03;295.97;;;7.80;99.90;;;;;;6217201;23;20408;-89
2021/09/23 01:58:38;;;;;;;319.73;300.43;;;7.80;99.90;;;;;;6216140;23;20407;-87
2021/09/23 02:01:04;;;;;;;320.40;301.37;;;7.80;99.90;;;;;;6217239;23;20408;-88
2021/09/23 02:03:33;;;;;;;318.80;300.10;;;7.90;99.90;;;;;;6216919;23;20911;-88
2021/09/23 02:06:00;;;;;;;327.10;307.90;;;7.90;99.90;;;;;;6228802;23;20792;-89
2021/09/23 02:08:27;;;;;;;340.27;319.93;;;8.00;99.90;;;;;;6219565;23;20404;-89
2021/09/23 02:10:56;;;;;;;344.23;323.50;;;7.90;99.90;;;;;;6219122;23;20435;-89
2021/09/23 02:13:24;;;;;;;348.90;326.67;;;7.90;99.90;;;;;;6229178;23;20415;-87
2021/09/23 02:15:51;;;;;;;344.17;324.17;;;7.90;99.90;;;;;;6229593;23;20444;-89
2021/09/23 02:18:18;;;;;;;344.20;323.80;;;8.00;99.90;;;;;;6228172;23;20403;-88
2021/09/23 02:20:48;;;;;;;352.03;330.63;;;7.90;99.90;;;;;;6227890;23;20408;-89
2021/09/23 02:23:18;;;;;;;348.73;327.40;;;7.80;99.90;;;;;;6218198;23;20880;-89
2021/09/23 02:25:45;;;;;;;342.33;322.30;;;7.80;99.90;;;;;;6218058;23;20444;-88
2021/09/23 02:28:12;;;;;;;352.00;331.17;;;7.80;99.90;;;;;;6227115;23;20487;-89
2021/09/23 02:30:40;;;;;;;351.37;331.37;;;7.90;99.90;;;;;;6217766;23;20428;-89
2021/09/23 02:33:13;;;;;;;348.30;327.73;;;8.00;99.90;;;;;;6219020;23;20404;-90
2021/09/23 02:35:40;;;;;;;349.70;330.40;;;8.00;99.90;;;;;;6228741;23;20416;-89
2021/09/23 02:38:09;;;;;;;357.33;336.10;;;7.80;99.90;;;;;;6228108;23;20405;-88
2021/09/23 02:40:36;;;;;;;358.03;337.80;;;7.90;99.90;;;;;;6227408;23;20428;-88
2021/09/23 02:43:04;;;;;;;353.90;333.43;;;7.90;99.90;;;;;;6227159;23;20454;-89
2021/09/23 02:45:33;;;;;;;374.77;353.17;;;7.90;99.90;;;;;;6228399;23;20412;-88
2021/09/23 02:48:02;;;;;;;359.23;338.27;;;7.90;99.90;;;;;;6218065;23;20396;-89
2021/09/23 02:50:29;;;;;;;357.17;335.87;;;7.90;99.90;;;;;;6217711;23;20420;-88
2021/09/23 02:52:56;;;;;;;354.87;333.43;;;7.90;99.90;;;;;;6217767;23;20439;-87
2021/09/23 02:55:24;;;;;;;365.47;343.37;;;7.80;99.90;;;;;;6219357;23;20443;-89
2021/09/23 02:57:52;;;;;;;369.30;344.73;;;7.90;99.90;;;;;;6218796;23;20397;-89
2021/09/23 03:00:20;;;;;;;364.70;341.50;;;7.90;99.90;;;;;;6230301;23;20491;-90
2021/09/23 03:02:47;;;;;;;368.60;346.17;;;8.00;99.90;;;;;;6228197;23;20400;-90
2021/09/23 03:05:15;;;;;;;380.57;357.47;;;7.90;99.90;;;;;;6217591;23;20432;-89
2021/09/23 03:07:42;;;;;;;367.97;345.80;;;7.80;99.90;;;;;;6227962;23;20409;-89
2021/09/23 03:10:09;;;;;;;365.63;344.33;;;7.80;99.90;;;;;;6217964;23;20400;-89
2021/09/23 03:12:36;;;;;;;365.30;343.70;;;7.80;99.90;;;;;;6216370;23;20809;-88
2021/09/23 03:15:04;;;;;;;356.30;335.80;;;7.70;99.90;;;;;;6217106;23;20487;-88
2021/09/23 03:17:30;;;;;;;358.77;337.47;;;7.70;99.90;;;;;;6216226;23;20451;-87
2021/09/23 03:19:57;;;;;;;361.57;340.80;;;7.70;99.90;;;;;;6226956;23;20776;-89
2021/09/23 03:22:27;;;;;;;356.63;336.63;;;7.60;99.90;;;;;;6216724;23;20494;-88
2021/09/23 03:24:54;;;;;;;345.53;326.10;;;7.60;99.90;;;;;;6227129;23;20911;-89
2021/09/23 03:27:22;;;;;;;342.33;322.93;;;7.40;99.90;;;;;;6216163;23;20515;-89
2021/09/23 03:29:49;;;;;;;351.30;330.57;;;7.40;99.90;;;;;;6231247;23;20400;-89
2021/09/23 03:32:16;;;;;;;342.40;323.17;;;7.50;99.90;;;;;;6233226;23;20444;-88
2021/09/23 03:34:43;;;;;;;346.93;326.17;;;7.50;99.90;;;;;;6225246;23;20490;-88
2021/09/23 03:37:10;;;;;;;349.37;329.67;;;7.40;99.90;;;;;;6232451;23;20511;-88
2021/09/23 03:39:39;;;;;;;352.27;331.87;;;7.40;99.90;;;;;;6223599;23;20439;-89
2021/09/23 03:42:06;;;;;;;351.83;330.23;;;7.40;99.90;;;;;;6234748;23;20412;-89
2021/09/23 03:44:33;;;;;;;361.40;340.80;;;7.40;99.90;;;;;;6236840;23;20472;-87
2021/09/23 03:47:01;;;;;;;358.00;337.90;;;7.30;99.90;;;;;;6236854;23;20416;-88
2021/09/23 03:49:29;;;;;;;356.57;335.47;;;7.50;99.90;;;;;;6232862;23;20454;-88
2021/09/23 03:51:56;;;;;;;364.20;343.10;;;7.40;99.90;;;;;;6220969;23;20468;-89
2021/09/23 03:54:23;;;;;;;367.63;345.80;;;7.60;99.90;;;;;;6224632;23;20419;-86
2021/09/23 03:56:52;;;;;;;382.33;359.30;;;7.60;99.90;;;;;;6224960;23;20462;-87
2021/09/23 03:59:19;;;;;;;381.87;359.67;;;7.60;99.90;;;;;;6222955;23;20401;-89
2021/09/23 04:01:48;;;;;;;388.97;364.47;;;7.60;99.90;;;;;;6220565;23;20492;-83
2021/09/23 04:04:14;;;;;;;382.03;360.33;;;7.80;99.90;;;;;;6216156;23;20527;-79
2021/09/23 04:06:47;;;;;;;371.73;350.10;;;7.90;99.90;;;;;;6230462;23;20491;-86
2021/09/23 04:09:20;;;;;;;363.37;342.30;;;7.80;99.90;;;;;;6220594;23;20896;-88
2021/09/23 04:11:48;;;;;;;350.37;331.13;;;7.70;99.90;;;;;;6223130;23;20432;-88
2021/09/23 04:14:16;;;;;;;358.67;338.60;;;7.60;99.90;;;;;;6222081;23;20396;-86
2021/09/23 04:16:43;;;;;;;370.07;347.93;;;7.60;99.90;;;;;;6230304;23;20428;-87
2021/09/23 04:19:10;;;;;;;371.97;349.50;;;7.50;99.90;;;;;;6233156;23;20412;-87
2021/09/23 04:21:44;;;;;;;372.93;351.53;;;7.60;99.90;;;;;;6231226;23;20407;-87
2021/09/23 04:24:16;;;;;;;362.57;342.53;;;7.60;99.90;;;;;;6216260;23;20893;-85
2021/09/23 04:26:49;;;;;;;402.30;374.00;;;7.60;99.90;;;;;;6226198;23;20411;-87
2021/09/23 04:29:18;;;;;;;357.13;336.73;;;7.60;99.90;;;;;;6226820;23;20416;-87
2021/09/23 04:31:45;;;;;;;366.43;345.57;;;7.50;99.90;;;;;;6228291;23;20428;-88
2021/09/23 04:34:12;;;;;;;368.13;347.37;;;7.90;99.90;;;;;;6230108;23;20404;-87
2021/09/23 04:36:45;;;;;;;363.13;342.43;;;8.00;99.90;;;;;;6218113;23;20423;-84
2021/09/23 04:39:13;;;;;;;374.63;354.23;;;8.20;99.90;;;;;;6225838;23;20432;-80
2021/09/23 04:41:40;;;;;;;369.03;347.40;;;8.20;99.90;;;;;;6215835;23;20926;-81
2021/09/23 04:44:07;;;;;;;361.10;339.77;;;8.20;99.90;;;;;;6225026;23;20890;-90
2021/09/23 04:46:35;;;;;;;392.27;365.13;;;8.20;99.90;;;;;;6217732;23;20396;-87
2021/09/23 04:49:02;;;;;;;346.87;327.30;;;8.10;99.90;;;;;;6222604;23;20482;-89
2021/09/23 04:51:29;;;;;;;352.87;332.80;;;8.00;99.90;;;;;;6229466;23;20436;-90
2021/09/23 04:53:57;;;;;;;349.40;329.70;;;7.90;99.90;;;;;;6227741;23;20446;-88
2021/09/23 04:56:24;;;;;;;353.37;332.67;;;7.80;99.90;;;;;;6219764;23;21019;-88
2021/09/23 04:58:51;;;;;;;356.97;337.30;;;7.80;99.90;;;;;;6230515;23;20739;-88
2021/09/23 05:01:18;;;;;;;359.17;338.80;;;7.60;99.90;;;;;;6235671;23;20483;-90
2021/09/23 05:03:46;;;;;;;354.43;334.43;;;7.70;99.90;;;;;;6236186;23;20440;-88
2021/09/23 05:06:13;;;;;;;360.43;340.27;;;7.80;99.90;;;;;;6234648;23;20428;-90
2021/09/23 05:08:40;;;;;;;355.90;335.60;;;7.80;99.90;;;;;;6217786;23;20476;-90
2021/09/23 05:11:07;;;;;;;363.93;342.83;;;7.70;99.90;;;;;;6226278;23;20491;-90
2021/09/23 05:13:34;;;;;;;352.53;331.13;;;7.80;99.90;;;;;;6224908;23;20404;-92
2021/09/23 05:16:02;;;;;;;348.50;329.30;;;7.90;99.90;;;;;;6228491;23;20408;-88
2021/09/23 05:18:29;;;;;;;336.57;318.00;;;7.70;99.90;;;;;;6228700;23;20790;-82
2021/09/23 05:20:57;;;;;;;338.03;320.13;;;7.70;99.90;;;;;;6215497;23;20891;-90
2021/09/23 05:23:24;;;;;;;352.10;334.50;;;7.60;99.90;;;;;;6227257;23;20443;-89
2021/09/23 05:25:51;;;;;;;347.20;329.57;;;7.60;99.90;;;;;;6215946;23;20458;-88
2021/09/23 05:28:18;;;;;;;336.97;319.97;;;7.60;99.90;;;;;;6214254;23;20400;-85
2021/09/23 05:30:45;;;;;;;342.17;324.03;;;7.50;99.90;;;;;;6225473;23;20416;-88
2021/09/23 05:33:12;;;;;;;339.00;320.87;;;7.50;99.90;;;;;;6216063;23;20475;-86
2021/09/23 05:35:39;;;;;;;335.63;317.93;;;7.50;99.90;;;;;;6226051;23;20777;-78
2021/09/23 05:38:08;;;;;;;336.47;318.77;;;7.60;99.90;;;;;;6225503;23;20423;-87
2021/09/23 05:40:34;;;;;;;330.50;312.53;;;7.60;99.90;;;;;;6215418;23;20483;-86
2021/09/23 05:43:01;;;;;;;334.07;315.67;;;7.50;99.90;;;;;;6214708;23;20408;-88
2021/09/23 05:45:28;;;;;;;336.33;319.47;;;7.70;99.90;;;;;;6226454;23;20518;-90
2021/09/23 05:47:55;;;;;;;332.23;314.87;;;7.70;99.90;;;;;;6217050;23;20483;-84
2021/09/23 05:50:22;;;;;;;325.23;307.67;;;7.80;99.90;;;;;;6216601;23;20435;-88
2021/09/23 05:52:51;;;;;;;312.10;296.40;;;7.70;99.90;;;;;;6225469;23;20448;-88
2021/09/23 05:55:19;;;;;;;322.70;302.30;;;7.70;99.90;;;;;;6215862;23;20400;-88
2021/09/23 05:57:46;;;;;;;311.53;295.27;;;8.00;99.90;;;;;;6215344;23;20488;-87
2021/09/23 06:00:15;;;;;;;312.53;292.37;;;7.90;99.90;;;;;;6215771;23;20480;-85
2021/09/23 06:02:42;;;;;;;335.17;316.63;;;8.00;99.90;;;;;;6138951;23;20436;-88
2021/09/23 06:05:11;;;;;;;335.13;318.03;;;8.20;99.90;;;;;;6215406;23;20519;-87
2021/09/23 06:07:40;;;;;;;330.50;313.30;;;8.30;99.90;;;;;;6225987;23;20940;-86
2021/09/23 06:10:09;;;;;;;329.03;311.33;;;8.50;99.90;;;;;;6215657;23;20404;-88
2021/09/23 06:12:37;;;;;;;324.67;307.37;;;8.70;99.90;;;;;;6224576;23;20993;-87
2021/09/23 06:15:07;;;;;;;312.73;295.43;;;8.90;99.90;;;;;;6226270;23;20444;-86
2021/09/23 06:17:35;;;;;;;296.70;281.10;;;9.20;99.90;;;;;;6225401;23;20411;-86
2021/09/23 06:20:02;;;;;;;286.77;270.97;;;9.60;99.90;;;;;;6225769;23;20872;-85
2021/09/23 06:22:29;;;;;;;273.80;258.10;;;9.80;99.90;;;;;;6225543;23;20416;-86
2021/09/23 06:24:55;;;;;;;260.30;245.77;;;10.10;99.90;;;;;;6215382;23;20428;-85
2021/09/23 06:27:22;;;;;;;259.03;245.03;;;10.30;99.90;;;;;;6224167;23;20438;-84
2021/09/23 06:29:51;;;;;;;250.77;237.47;;;10.50;99.90;;;;;;6215102;23;20492;-85
2021/09/23 06:32:17;;;;;;;246.33;233.23;;;10.60;99.90;;;;;;6215208;23;20424;-85
2021/09/23 06:34:44;;;;;;;244.37;232.20;;;10.60;99.90;;;;;;6225048;23;20411;-85
2021/09/23 06:37:13;;;;;;;236.07;223.07;;;10.70;99.90;;;;;;6215412;23;20741;-86
2021/09/23 06:39:40;;;;;;;215.37;204.27;;;10.90;99.90;;;;;;6225299;23;20942;-86
2021/09/23 06:42:07;;;;;;;206.63;195.57;;;11.00;99.90;;;;;;6223769;23;20407;-87
2021/09/23 06:44:35;;;;;;;203.43;192.83;;;11.10;99.90;;;;;;6215287;23;20392;-84
2021/09/23 06:47:03;;;;;;;206.00;194.97;;;11.20;99.90;;;;;;6215318;23;20426;-85
2021/09/23 06:49:46;;;;;;;;;;;;;;;;;;;;;
2021/09/23 06:52:25;;;;;;;;;;;;;;;;;;;;;
2021/09/23 06:55:22;;;;;;;175.77;166.57;;;11.60;99.90;;;;;;6226793;23;20400;-86
2021/09/23 07:04:48;;;;;;;128.10;122.60;;;11.90;99.90;;;;;;6213415;23;20759;-86
2021/09/23 07:07:28;;;;;;;122.13;117.03;;;12.10;99.90;;;;;;6224638;23;20412;-86
2021/09/23 07:10:00;;;;;;;121.20;115.70;;;12.10;99.90;;;;;;6162726;23;20414;-85
2021/09/23 07:13:00;;;;;;;122.80;117.50;;;12.20;99.90;;;;;;6224201;23;20489;-86
2021/09/23 07:15:32;;;;;;;135.07;128.37;;;12.30;99.90;;;;;;6225345;23;20912;-86
2021/09/23 07:18:16;;;;;;;124.10;118.80;;;12.50;99.90;;;;;;6225015;23;20927;-85
2021/09/23 07:21:07;;;;;;;120.10;115.10;;;12.70;99.90;;;;;;6215670;23;20427;-85
2021/09/23 07:23:58;;;;;;;113.07;108.40;;;12.90;99.90;;;;;;6221369;23;20458;-85
2021/09/23 07:26:43;;;;;;;70.77;66.77;;;13.10;99.90;;;;;;6214865;23;20407;-86
2021/09/23 07:29:24;;;;;;;60.37;57.60;;;13.20;99.90;;;;;;6213813;23;20880;-85
2021/09/23 07:31:54;;;;;;;46.13;43.77;;;13.40;99.90;;;;;;6215136;23;20396;-85
2021/09/23 07:37:27;;;;;;;32.00;30.10;;;13.60;99.90;;;;;;6214989;23;20404;-85
2021/09/23 07:39:56;;;;;;;22.97;20.80;;;13.60;99.90;;;;;;6214673;23;20492;-86
2021/09/23 07:42:35;;;;;;;15.53;13.97;;;13.80;99.90;;;;;;6213963;23;20816;-86
2021/09/23 07:45:03;;;;;;;10.33;8.83;;;13.70;99.20;;;;;;6224454;23;20448;-87
2021/09/23 07:47:34;;;;;;;9.23;8.43;;;13.90;97.80;;;;;;6224888;23;20412;-87
2021/09/23 07:50:01;;;;;;;9.30;5.93;;;14.00;97.20;;;;;;6214951;23;20411;-86
2021/09/23 07:52:38;;;;;;;8.37;5.70;;;14.10;94.20;;;;;;6225172;23;20794;-87
2021/09/23 07:55:10;;;;;;;8.10;5.77;;;14.20;94.70;;;;;;6214767;23;20487;-85
2021/09/23 07:57:40;;;;;;;8.50;4.80;;;14.30;93.60;;;;;;6223697;23;20408;-86
2021/09/23 08:00:20;;;;;;;5.40;4.13;;;14.50;93.10;;;;;;6214927;23;20401;-88
2021/09/23 08:03:03;;;;;;;7.50;4.63;;;14.60;91.20;;;;;;6215184;23;20432;-87
2021/09/23 08:05:45;;;;;;;;;;;;;;;;;;;;;
2021/09/23 08:08:35;;;;;;;7.73;5.03;;;15.00;89.70;;;;;;6215797;23;20401;-86
2021/09/23 08:11:28;;;;;;;7.30;3.87;;;15.20;86.20;;;;;;6225967;23;20417;-86
2021/09/23 08:14:00;;;;;;;11.23;4.97;;;15.40;81.20;;;;;;6224883;23;20490;-87
2021/09/23 08:16:31;;;;;;;7.70;4.63;;;15.50;80.50;;;;;;6225575;23;20422;-88
2021/09/23 08:18:58;;;;;;;5.70;3.00;;;15.80;77.10;;;;;;6215888;23;20439;-88
2021/09/23 08:21:31;;;;;;;7.33;4.23;;;16.10;76.70;;;;;;6226294;23;20408;-87
2021/09/23 08:23:59;;;;;;;6.70;3.00;;;16.30;71.50;;;;;;6215846;23;20418;-88
2021/09/23 08:26:58;;;;;;;9.83;3.67;;;16.60;68.20;;;;;;6225769;23;20400;-88
2021/09/23 08:29:33;;;;;;;6.53;3.53;;;16.80;65.70;;;;;;6224547;23;20412;-88
2021/09/23 08:32:10;;;;;;;6.83;3.57;;;17.00;63.30;;;;;;6226048;23;20741;-87
2021/09/23 08:35:10;;;;;;;11.70;3.80;;;17.20;60.60;;;;;;6216140;23;20411;-88
2021/09/23 08:37:54;;;;;;;8.80;3.90;;;17.40;59.40;;;;;;6226047;23;20468;-88
2021/09/23 08:40:30;;;;;;;11.17;3.80;;;17.30;59.20;;;;;;6215888;23;20402;-88
2021/09/23 08:43:05;;;;;;;4.60;3.07;;;17.50;57.00;;;;;;6223997;23;20420;-87
2021/09/23 08:45:47;;;;;;;9.27;3.40;;;17.50;55.50;;;;;;6216079;23;20462;-88
2021/09/23 08:48:30;;;;;;;21.47;5.10;;;17.70;53.50;;;;;;6225556;23;20476;-87
2021/09/23 08:54:02;;;;;;;6.20;3.40;;;18.40;51.70;;;;;;6212428;23;20450;-88
2021/09/23 08:59:37;;;;;;;8.43;3.90;;;18.90;47.60;;;;;;6210876;23;20434;-89
2021/09/23 09:02:25;;;;;;;12.30;3.67;;;19.00;43.40;;;;;;6225902;23;20928;-87
2021/09/23 09:05:23;;;;;;;7.30;3.83;;;19.50;40.00;;;;;;6225479;23;20523;-88
2021/09/23 09:08:04;;;;;;;6.17;3.80;;;19.60;39.30;;;;;;6225361;23;20489;-88
2021/09/23 09:14:02;;;;;;;8.83;2.80;;;20.10;35.40;;;;;;6152862;23;20568;-89
2021/09/23 09:20:10;;;;;;;5.77;3.33;;;20.70;31.10;;;;;;6206122;23;20830;-88
2021/09/23 09:25:58;;;;;;;5.47;2.23;;;20.80;29.90;;;;;;6192882;23;20929;-89
2021/09/23 09:29:11;;;;;;;5.77;2.83;;;20.90;28.10;;;;;;6223653;23;20419;-89
2021/09/23 09:32:09;;;;;;;6.43;3.13;;;21.00;28.20;;;;;;6225523;23;20413;-89
2021/09/23 09:34:58;;;;;;;7.53;3.73;;;21.20;27.90;;;;;;6225598;23;20535;-89
2021/09/23 09:37:47;;;;;;;5.67;2.83;;;21.40;27.00;;;;;;6215114;23;20953;-88
2021/09/23 09:40:34;;;;;;;6.57;3.30;;;21.30;23.70;;;;;;6225421;23;20456;-88
2021/09/23 09:46:31;;;;;;;6.73;2.97;;;21.60;25.00;;;;;;6225578;23;20403;-89
2021/09/23 09:49:14;;;;;;;5.47;2.20;;;21.70;23.30;;;;;;6225693;23;20415;-89
2021/09/23 09:52:11;;;;;;;6.27;3.20;;;21.80;21.50;;;;;;6225286;23;20404;-89
2021/09/23 09:54:51;;;;;;;8.83;3.03;;;21.70;20.20;;;;;;6203024;23;20534;-89
2021/09/23 09:57:35;;;;;;;5.60;3.10;;;22.40;21.40;;;;;;6223940;23;20836;-86
2021/09/23 10:00:19;;;;;;;7.90;3.50;;;22.60;19.30;;;;;;6225102;23;20780;-86
2021/09/23 10:03:18;;;;;;;6.90;3.43;;;22.80;17.90;;;;;;6225412;23;20415;-87
2021/09/23 10:09:14;;;;;;;16.20;2.87;;;23.30;16.30;;;;;;6210882;23;20408;-86
2021/09/23 10:17:51;;;;;;;20.23;3.87;;;22.30;14.90;;;;;;6212015;23;20416;-86
2021/09/23 10:21:24;;;;;;;;;;;;;;;;;;;;;
2021/09/23 10:27:57;;;;;;;5.67;2.90;;;22.50;14.70;;;;;;6214949;23;20750;-86
2021/09/23 10:32:56;;;;;;;4.70;2.50;;;22.90;12.60;;;;;;6210153;23;20416;-87
2021/09/23 10:36:01;;;;;;;5.73;2.93;;;23.40;13.50;;;;;;6226869;23;20408;-87
2021/09/23 10:38:42;;;;;;;6.37;2.87;;;23.30;12.20;;;;;;6206376;23;20459;-87
2021/09/23 10:41:14;;;;;;;5.73;2.53;;;23.60;10.50;;;;;;6227270;23;20418;-86
2021/09/23 10:44:01;;;;;;;7.40;2.93;;;23.40;11.30;;;;;;6225874;23;20400;-88
2021/09/23 10:46:38;;;;;;;9.27;5.67;;;23.40;10.30;;;;;;6226893;23;20502;-87
2021/09/23 10:49:16;;;;;;;8.00;5.60;;;23.20;11.10;;;;;;6226738;23;20897;-86
2021/09/23 10:51:50;;;;;;;20.83;6.17;;;23.00;11.00;;;;;;6227133;23;20739;-86
2021/09/23 10:54:28;;;;;;;8.17;6.10;;;23.10;9.80;;;;;;6226851;23;20797;-86
2021/09/23 10:57:09;;;;;;;23.03;5.40;;;23.30;11.40;;;;;;6226790;23;20436;-86
2021/09/23 11:00:08;;;;;;;11.20;6.40;;;24.00;9.40;;;;;;6226567;23;21116;-87
2021/09/23 11:02:52;;;;;;;13.83;6.50;;;24.30;7.60;;;;;;6216298;23;20494;-87
2021/09/23 11:05:25;;;;;;;8.87;5.87;;;24.20;7.20;;;;;;6216656;23;20436;-87
2021/09/23 11:08:14;;;;;;;9.00;6.23;;;24.70;7.90;;;;;;6226696;23;20408;-87
2021/09/23 11:11:05;;;;;;;9.90;6.23;;;24.60;5.40;;;;;;6216981;23;20375;-87
2021/09/23 11:19:22;;;;;;;10.90;5.87;;;24.20;5.20;;;;;;6213459;23;20884;-78
2021/09/23 11:21:50;;;;;;;10.80;5.83;;;24.70;6.90;;;;;;6216367;23;20872;-77
2021/09/23 11:24:18;;;;;;;10.93;6.10;;;25.10;5.40;;;;;;6216635;23;20793;-77
2021/09/23 11:26:45;;;;;;;10.80;6.33;;;24.90;3.00;;;;;;6216796;23;20406;-78
2021/09/23 11:29:13;;;;;;;9.67;6.00;;;25.00;3.90;;;;;;6215232;23;20400;-77
2021/09/23 11:31:48;;;;;;;11.00;6.10;;;25.10;1.80;;;;;;6216739;23;20407;-77
2021/09/23 11:34:32;;;;;;;11.20;6.77;;;25.10;3.20;;;;;;6226497;23;20435;-78
2021/09/23 11:36:59;;;;;;;21.90;6.00;;;24.70;3.70;;;;;;6216552;23;20439;-76
2021/09/23 11:39:26;;;;;;;8.60;6.50;;;24.80;3.50;;;;;;6216516;23;20720;-77
2021/09/23 11:42:10;;;;;;;9.93;6.17;;;25.30;2.50;;;;;;6216437;23;20396;-77
2021/09/23 11:44:36;;;;;;;9.00;6.03;;;25.10;3.90;;;;;;6216695;23;20396;-77
2021/09/23 11:47:05;;;;;;;12.70;7.20;;;24.50;5.00;;;;;;6216715;23;20400;-79
2021/09/23 11:49:38;;;;;;;11.70;6.33;;;24.00;4.90;;;;;;6216199;23;20935;-81
2021/09/23 11:52:05;;;;;;;10.50;6.07;;;23.80;4.80;;;;;;6216597;23;20404;-80
2021/09/23 11:54:32;;;;;;;10.83;5.30;;;23.30;6.20;;;;;;6216249;23;20971;-78
2021/09/23 11:57:00;;;;;;;17.93;5.73;;;23.20;4.50;;;;;;6216561;23;20479;-77
2021/09/23 11:59:28;;;;;;;16.43;5.27;;;23.70;2.60;;;;;;6211463;23;20404;-80
2021/09/23 12:02:01;;;;;;;10.63;6.23;;;24.30;2.80;;;;;;6214616;23;20491;-79
2021/09/23 12:04:32;;;;;;;10.73;5.80;;;24.40;1.60;;;;;;6214189;23;20443;-79
2021/09/23 12:07:03;;;;;;;11.07;4.80;;;24.40;1.00;;;;;;6214814;23;20396;-79
2021/09/23 12:09:30;;;;;;;13.03;5.87;;;24.40;1.00;;;;;;6214206;23;20392;-79
2021/09/23 12:11:57;;;;;;;13.33;5.87;;;24.70;1.00;;;;;;6214691;23;20400;-79
2021/09/23 12:14:24;;;;;;;13.33;8.03;;;24.30;1.00;;;;;;6212442;23;20959;-78
2021/09/23 12:17:01;;;;;;;13.03;6.10;;;24.10;2.60;;;;;;6214520;23;20491;-79
2021/09/23 12:19:30;;;;;;;8.40;5.27;;;24.20;1.00;;;;;;6216346;23;20404;-79
2021/09/23 12:22:02;;;;;;;11.03;6.03;;;24.70;1.90;;;;;;6215861;23;20486;-87
2021/09/23 12:24:43;;;;;;;16.23;6.50;;;25.00;1.00;;;;;;6216347;23;20404;-88
2021/09/23 12:27:17;;;;;;;10.07;5.93;;;25.30;1.00;;;;;;6225119;23;20419;-87
2021/09/23 12:30:02;;;;;;;15.00;6.47;;;25.60;1.00;;;;;;6215827;23;20404;-88
2021/09/23 12:33:13;;;;;;;9.27;5.83;;;25.10;1.00;;;;;;6226054;23;20415;-89
2021/09/23 12:35:42;;;;;;;12.77;6.40;;;24.60;1.00;;;;;;6225080;23;20432;-89
2021/09/23 12:38:19;;;;;;;15.80;6.40;;;24.20;1.00;;;;;;6216144;23;20408;-87
2021/09/23 12:43:37;;;;;;;11.93;6.67;;;24.10;1.00;;;;;;6211258;23;20422;-88
2021/09/23 12:46:39;;;;;;;14.67;5.90;;;24.30;1.10;;;;;;6225893;23;20398;-88
2021/09/23 12:49:18;;;;;;;14.03;5.87;;;24.30;1.00;;;;;;6215608;23;20404;-89
2021/09/23 12:51:52;;;;;;;9.07;6.60;;;24.30;1.00;;;;;;6225514;23;20494;-88
2021/09/23 12:54:22;;;;;;;14.53;5.77;;;24.30;1.00;;;;;;6225819;23;20431;-88
2021/09/23 13:00:40;;;;;;;13.83;5.70;;;24.70;1.00;;;;;;6176535;23;20416;-90
2021/09/23 13:03:25;;;;;;;9.73;4.90;;;24.50;1.00;;;;;;6215964;23;20408;-89
2021/09/23 13:06:23;;;;;;;8.83;5.37;;;24.40;1.00;;;;;;6211828;23;20518;-87
2021/09/23 13:09:27;;;;;;;14.40;5.50;;;24.70;1.00;;;;;;6225665;23;20420;-88
2021/09/23 13:12:24;;;;;;;9.30;5.30;;;24.60;1.00;;;;;;6211892;23;20418;-87
2021/09/23 13:15:10;;;;;;;14.10;5.50;;;24.90;1.00;;;;;;6212335;23;20526;-88
2021/09/23 13:20:53;;;;;;;10.23;5.10;;;24.30;1.00;;;;;;6225608;23;20423;-89
2021/09/23 13:31:59;;;;;;;10.07;5.20;;;24.20;1.00;;;;;;6211532;23;20400;-78
2021/09/23 13:35:00;;;;;;;;;;;;;;;;;;;;;
2021/09/23 13:37:37;;;;;;;11.80;5.93;;;24.80;1.00;;;;;;6195423;23;20504;-87
2021/09/23 13:43:08;;;;;;;11.23;5.57;;;24.80;1.00;;;;;;6178500;23;20417;-90
2021/09/23 13:49:18;;;;;;;6.93;5.60;;;24.80;1.00;;;;;;6192697;23;20491;-89
2021/09/23 13:52:21;;;;;;;10.17;6.17;;;24.90;1.00;;;;;;6195165;23;20416;-88
2021/09/23 13:55:44;;;;;;;16.50;7.30;;;24.70;1.00;;;;;;6195161;23;20471;-89
2021/09/23 13:58:22;;;;;;;17.53;7.87;;;24.60;1.40;;;;;;6174341;23;20425;-88
2021/09/23 14:01:04;;;;;;;15.60;6.10;;;24.60;1.00;;;;;;6195368;23;20409;-86
2021/09/23 14:06:39;;;;;;;9.70;5.90;;;24.40;4.00;;;;;;6182464;23;20484;-88
2021/09/23 14:09:11;;;;;;;13.57;6.47;;;24.40;2.30;;;;;;6187113;23;20459;-87
2021/09/23 14:11:57;;;;;;;;;;;;;;;;;;;;;
2021/09/23 14:18:02;;;;;;;14.50;7.67;;;24.20;4.60;;;;;;6197371;23;20496;-87
2021/09/23 14:20:44;;;;;;;10.67;6.93;;;24.40;4.30;;;;;;6197079;23;20412;-88
2021/09/23 14:23:22;;;;;;;19.90;7.00;;;24.10;5.70;;;;;;6197423;23;20412;-90
2021/09/23 14:25:53;;;;;;;12.00;7.43;;;24.00;6.40;;;;;;6156955;23;20906;-87
2021/09/23 14:28:30;;;;;;;;;;;;;;;;;;;;;
2021/09/23 14:31:02;;;;;;;11.30;6.50;;;24.00;6.20;;;;;;6131243;23;20488;-88
2021/09/23 14:33:32;;;;;;;13.63;8.13;;;23.70;7.20;;;;;;6167501;23;20413;-87